createdAt,value
2022-09-29T00:01:48.882Z,9.55
2022-09-29T00:04:34.372Z,9.49
2022-09-29T00:07:19.894Z,9.47
2022-09-29T00:10:05.612Z,9.44
2022-09-29T00:12:51.806Z,9.42
2022-09-29T00:15:37.627Z,9.39
2022-09-29T00:18:23.991Z,9.37
2022-09-29T00:21:19.867Z,9.36
2022-09-29T00:24:05.392Z,9.35
2022-09-29T00:26:50.998Z,9.35
2022-09-29T00:29:36.807Z,9.36
2022-09-29T00:32:22.056Z,9.36
2022-09-29T00:35:10.193Z,9.39
2022-09-29T00:37:55.585Z,9.41
2022-09-29T00:40:43.546Z,9.44
2022-09-29T00:43:47.119Z,9.45
2022-09-29T00:46:50.032Z,9.42
2022-09-29T00:49:51.771Z,9.41
2022-09-29T00:52:56.653Z,9.42
2022-09-29T00:55:47.285Z,9.44
2022-09-29T00:58:35.616Z,9.45
2022-09-29T01:01:23.109Z,9.48
2022-09-29T01:04:15.687Z,9.52
2022-09-29T01:07:00.925Z,9.57
2022-09-29T01:09:46.832Z,9.59
2022-09-29T01:12:32.980Z,9.60
2022-09-29T01:15:20.635Z,9.61
2022-09-29T01:18:06.999Z,9.60
2022-09-29T01:21:02.589Z,9.62
2022-09-29T01:24:10.223Z,9.64
2022-09-29T01:27:05.860Z,9.65
2022-09-29T01:30:16.829Z,9.62
2022-09-29T01:33:16.057Z,9.59
2022-09-29T01:36:10.802Z,9.57
2022-09-29T01:39:11.473Z,9.58
2022-09-29T01:42:05.302Z,9.60
2022-09-29T01:45:36.919Z,9.60
2022-09-29T01:48:27.615Z,9.57
2022-09-29T01:51:18.691Z,9.56
2022-09-29T01:54:10.156Z,9.58
2022-09-29T01:57:06.319Z,9.60
2022-09-29T02:00:13.583Z,9.58
2022-09-29T02:03:26.382Z,9.60
2022-09-29T02:06:21.854Z,9.61
2022-09-29T02:09:15.380Z,9.63
2022-09-29T02:12:03.537Z,9.60
2022-09-29T02:14:53.652Z,9.62
2022-09-29T02:17:43.448Z,9.64
2022-09-29T02:20:29.196Z,9.63
2022-09-29T02:23:14.872Z,9.64
2022-09-29T02:26:01.414Z,9.67
2022-09-29T02:28:47.694Z,9.66
2022-09-29T02:31:34.084Z,9.66
2022-09-29T02:34:24.518Z,9.67
2022-09-29T02:37:25.091Z,9.66
2022-09-29T02:40:19.855Z,9.63
2022-09-29T02:43:38.669Z,9.63
2022-09-29T02:46:46.503Z,9.62
2022-09-29T02:50:12.175Z,9.59
2022-09-29T02:53:23.224Z,9.58
2022-09-29T02:56:26.301Z,9.55
2022-09-29T02:59:21.179Z,9.53
2022-09-29T03:02:06.756Z,9.54
2022-09-29T03:04:53.607Z,9.57
2022-09-29T03:07:39.764Z,9.58
2022-09-29T03:10:29.873Z,9.56
2022-09-29T03:13:15.536Z,9.57
2022-09-29T03:16:01.580Z,9.58
2022-09-29T03:18:47.051Z,9.56
2022-09-29T03:21:32.551Z,9.54
2022-09-29T03:24:17.784Z,9.55
2022-09-29T03:27:04.479Z,9.55
2022-09-29T03:29:50.613Z,9.55
2022-09-29T03:32:35.822Z,9.55
2022-09-29T03:35:21.314Z,9.58
2022-09-29T03:38:06.950Z,9.57
2022-09-29T03:40:52.512Z,9.56
2022-09-29T03:43:37.805Z,9.59
2022-09-29T03:46:23.336Z,9.61
2022-09-29T03:49:12.350Z,9.58
2022-09-29T03:51:57.824Z,9.56
2022-09-29T03:54:43.596Z,9.56
2022-09-29T03:57:29.088Z,9.56
2022-09-29T04:00:14.823Z,9.53
2022-09-29T04:03:00.371Z,9.54
2022-09-29T04:05:47.422Z,9.56
2022-09-29T04:08:35.375Z,9.59
2022-09-29T04:11:21.040Z,9.60
2022-09-29T04:14:06.862Z,9.62
2022-09-29T04:16:52.401Z,9.65
2022-09-29T04:19:40.332Z,9.67
2022-09-29T04:22:25.569Z,9.67
2022-09-29T04:25:10.825Z,9.70
2022-09-29T04:27:56.364Z,9.71
2022-09-29T04:30:41.635Z,9.71
2022-09-29T04:33:26.924Z,9.73
2022-09-29T04:36:12.298Z,9.73
2022-09-29T04:38:58.093Z,9.76
2022-09-29T04:41:43.677Z,9.73
2022-09-29T04:44:29.452Z,9.74
2022-09-29T04:47:15.699Z,9.75
2022-09-29T04:50:00.984Z,9.77
2022-09-29T04:52:46.447Z,9.76
2022-09-29T04:55:32.069Z,9.74
2022-09-29T04:58:17.111Z,9.74
2022-09-29T05:01:12.937Z,9.76
2022-09-29T05:03:58.740Z,9.75
2022-09-29T05:06:44.268Z,9.75
2022-09-29T05:09:33.372Z,9.76
2022-09-29T05:12:18.849Z,9.77
2022-09-29T05:15:06.265Z,9.76
2022-09-29T05:17:51.917Z,9.80
2022-09-29T05:20:44.699Z,9.82
2022-09-29T05:23:36.269Z,9.83
2022-09-29T05:26:21.476Z,9.84
2022-09-29T05:29:06.951Z,9.89
2022-09-29T05:31:52.544Z,9.93
2022-09-29T05:34:38.489Z,9.92
2022-09-29T05:37:24.173Z,9.93
2022-09-29T05:40:10.332Z,9.94
2022-09-29T05:42:55.826Z,9.96
2022-09-29T05:45:40.980Z,10.00
2022-09-29T05:48:26.704Z,10.03
2022-09-29T05:51:17.382Z,10.04
2022-09-29T05:54:04.983Z,10.06
2022-09-29T05:56:52.611Z,10.06
2022-09-29T05:59:38.224Z,10.10
2022-09-29T06:02:23.578Z,10.17
2022-09-29T06:05:09.343Z,10.21
2022-09-29T06:07:55.679Z,10.24
2022-09-29T06:10:41.507Z,10.23
2022-09-29T06:13:26.585Z,10.25
2022-09-29T06:16:13.159Z,10.29
2022-09-29T06:19:00.978Z,10.30
2022-09-29T06:21:46.148Z,10.32
2022-09-29T06:24:31.502Z,10.36
2022-09-29T06:27:17.811Z,10.39
2022-09-29T06:30:03.603Z,10.41
2022-09-29T06:32:49.267Z,10.44
2022-09-29T06:35:53.744Z,10.49
2022-09-29T06:38:39.540Z,10.51
2022-09-29T06:41:25.193Z,10.51
2022-09-29T06:44:11.684Z,10.51
2022-09-29T06:46:57.985Z,10.42
2022-09-29T06:49:46.507Z,10.42
2022-09-29T06:52:57.170Z,10.46
2022-09-29T06:55:57.219Z,10.48
2022-09-29T06:58:42.897Z,10.45
2022-09-29T07:01:28.586Z,10.44
2022-09-29T07:04:14.250Z,10.45
2022-09-29T07:06:59.627Z,10.46
2022-09-29T07:09:44.811Z,10.47
2022-09-29T07:12:30.537Z,10.43
2022-09-29T07:15:16.054Z,10.41
2022-09-29T07:18:02.077Z,10.43
2022-09-29T07:20:48.036Z,10.41
2022-09-29T07:23:33.842Z,10.41
2022-09-29T07:26:19.421Z,10.47
2022-09-29T07:29:05.196Z,10.52
2022-09-29T07:31:53.088Z,10.57
2022-09-29T07:34:39.264Z,10.63
2022-09-29T07:37:25.329Z,10.70
2022-09-29T07:40:11.055Z,10.74
2022-09-29T07:42:59.691Z,10.79
2022-09-29T07:45:51.090Z,10.87
2022-09-29T07:48:38.222Z,10.85
2022-09-29T07:51:24.247Z,10.91
2022-09-29T07:54:09.665Z,10.99
2022-09-29T07:56:55.245Z,11.07
2022-09-29T07:59:47.338Z,11.15
2022-09-29T08:02:35.146Z,11.21
2022-09-29T08:05:21.503Z,11.29
2022-09-29T08:08:07.503Z,11.36
2022-09-29T08:10:54.127Z,11.40
2022-09-29T08:13:40.892Z,11.46
2022-09-29T08:16:26.656Z,11.49
2022-09-29T08:22:02.798Z,11.58
2022-09-29T08:24:48.886Z,11.64
2022-09-29T08:27:37.435Z,11.70
2022-09-29T08:30:27.202Z,11.77
2022-09-29T08:33:15.201Z,11.85
2022-09-29T08:36:04.521Z,11.96
2022-09-29T08:38:53.072Z,12.03
2022-09-29T08:41:52.019Z,12.20
2022-09-29T08:44:47.250Z,12.36
2022-09-29T08:47:47.290Z,12.41
2022-09-29T08:50:41.772Z,12.55
2022-09-29T08:53:31.417Z,12.64
2022-09-29T08:56:18.861Z,12.72
2022-09-29T08:59:05.239Z,12.78
2022-09-29T09:02:22.412Z,12.85
2022-09-29T09:05:28.588Z,12.89
2022-09-29T09:08:29.318Z,12.85
2022-09-29T09:11:41.960Z,12.86
2022-09-29T09:14:58.089Z,12.95
2022-09-29T09:18:17.376Z,13.00
2022-09-29T09:21:52.146Z,13.14
2022-09-29T09:28:16.158Z,13.34
2022-09-29T09:31:24.073Z,13.43
2022-09-29T09:35:02.508Z,13.56
2022-09-29T09:38:03.325Z,13.69
2022-09-29T09:40:54.058Z,13.69
2022-09-29T09:43:44.688Z,13.71
2022-09-29T09:46:34.835Z,13.81
2022-09-29T09:49:35.852Z,13.83
2022-09-29T09:52:26.374Z,13.95
2022-09-29T09:55:28.556Z,14.19
2022-09-29T09:58:29.117Z,14.47
2022-09-29T10:01:15.324Z,14.66
2022-09-29T10:04:02.206Z,14.78
2022-09-29T10:06:48.021Z,14.63
2022-09-29T10:09:33.948Z,14.86
2022-09-29T10:12:22.239Z,15.02
2022-09-29T10:15:34.234Z,15.20
2022-09-29T10:18:30.936Z,15.19
2022-09-29T10:21:32.736Z,15.18
2022-09-29T10:24:31.126Z,14.96
2022-09-29T10:27:23.879Z,14.89
2022-09-29T10:30:22.621Z,15.01
2022-09-29T10:33:16.498Z,15.24
2022-09-29T10:36:11.257Z,15.22
2022-09-29T10:39:02.344Z,15.19
2022-09-29T10:41:54.263Z,15.32
2022-09-29T10:44:40.578Z,15.20
2022-09-29T10:47:25.847Z,15.27
2022-09-29T10:50:23.678Z,15.17
2022-09-29T10:53:38.303Z,15.37
2022-09-29T10:56:27.838Z,15.63
2022-09-29T10:59:14.017Z,15.52
2022-09-29T11:02:02.494Z,15.33
2022-09-29T11:04:49.453Z,15.19
2022-09-29T11:07:48.684Z,15.17
2022-09-29T11:10:37.278Z,15.12
2022-09-29T11:13:24.200Z,15.06
2022-09-29T11:16:19.152Z,14.96
2022-09-29T11:19:11.384Z,14.88
2022-09-29T11:22:00.202Z,14.85
2022-09-29T11:24:58.132Z,14.78
2022-09-29T11:28:05.048Z,14.67
2022-09-29T11:31:09.442Z,14.64
2022-09-29T11:34:20.883Z,14.60
2022-09-29T11:37:36.131Z,14.48
2022-09-29T11:40:31.610Z,14.27
2022-09-29T11:43:45.741Z,14.17
2022-09-29T11:46:52.784Z,14.11
2022-09-29T11:49:47.522Z,14.08
2022-09-29T11:52:57.458Z,14.13
2022-09-29T11:55:51.809Z,14.17
2022-09-29T11:58:47.953Z,14.24
2022-09-29T12:02:05.291Z,14.30
2022-09-29T12:04:57.158Z,14.38
2022-09-29T12:07:59.141Z,14.43
2022-09-29T12:10:50.710Z,14.57
2022-09-29T12:13:52.380Z,14.77
2022-09-29T12:16:53.338Z,14.88
2022-09-29T12:19:41.245Z,14.99
2022-09-29T12:22:31.962Z,15.09
2022-09-29T12:25:28.270Z,15.10
2022-09-29T12:28:20.113Z,15.03
2022-09-29T12:31:20.443Z,14.97
2022-09-29T12:34:21.823Z,14.93
2022-09-29T12:37:17.610Z,14.97
2022-09-29T12:40:10.706Z,15.02
2022-09-29T12:43:15.913Z,15.24
2022-09-29T12:46:19.806Z,15.44
2022-09-29T12:49:20.646Z,15.41
2022-09-29T12:52:15.778Z,15.59
2022-09-29T12:55:04.550Z,15.70
2022-09-29T12:57:56.708Z,15.67
2022-09-29T13:00:47.658Z,15.57
2022-09-29T13:04:07.268Z,15.33
2022-09-29T13:07:16.113Z,15.32
2022-09-29T13:10:21.239Z,15.41
2022-09-29T13:13:15.776Z,15.33
2022-09-29T13:16:18.063Z,15.29
2022-09-29T13:19:26.014Z,15.24
2022-09-29T13:22:50.293Z,15.25
2022-09-29T13:25:48.419Z,15.26
2022-09-29T13:28:42.988Z,15.19
2022-09-29T13:31:33.678Z,15.06
2022-09-29T13:34:24.985Z,15.04
2022-09-29T13:37:17.997Z,15.04
2022-09-29T13:40:11.475Z,15.06
2022-09-29T13:43:00.081Z,15.05
2022-09-29T13:45:46.731Z,15.02
2022-09-29T13:48:37.078Z,14.99
2022-09-29T13:51:26.571Z,14.93
2022-09-29T13:54:29.082Z,14.89
2022-09-29T13:57:23.786Z,14.88
2022-09-29T14:00:17.217Z,14.93
2022-09-29T14:03:03.725Z,15.03
2022-09-29T14:05:53.766Z,15.11
2022-09-29T14:08:42.250Z,15.17
2022-09-29T14:11:39.157Z,15.31
2022-09-29T14:14:26.293Z,15.46
2022-09-29T14:17:24.239Z,15.59
2022-09-29T14:20:19.557Z,15.69
2022-09-29T14:23:06.997Z,15.70
2022-09-29T14:25:54.342Z,15.78
2022-09-29T14:28:42.085Z,15.84
2022-09-29T14:31:28.431Z,15.78
2022-09-29T14:34:16.427Z,15.66
2022-09-29T14:37:03.740Z,15.57
2022-09-29T14:40:08.659Z,15.47
2022-09-29T14:43:03.312Z,15.37
2022-09-29T14:46:26.135Z,15.28
2022-09-29T14:49:54.822Z,15.19
2022-09-29T14:52:48.664Z,15.11
2022-09-29T14:55:34.017Z,15.00
2022-09-29T14:58:23.566Z,14.94
2022-09-29T15:01:23.431Z,14.91
2022-09-29T15:04:14.713Z,14.93
2022-09-29T15:07:04.542Z,14.93
2022-09-29T15:09:51.738Z,14.91
2022-09-29T15:12:37.320Z,14.87
2022-09-29T15:15:34.722Z,14.79
2022-09-29T15:18:39.195Z,14.78
2022-09-29T15:21:37.026Z,14.84
2022-09-29T15:24:42.680Z,14.90
2022-09-29T15:27:28.249Z,14.97
2022-09-29T15:30:14.785Z,15.01
2022-09-29T15:33:07.625Z,14.99
2022-09-29T15:35:56.134Z,14.97
2022-09-29T15:38:41.605Z,14.89
2022-09-29T15:41:30.791Z,14.86
2022-09-29T15:44:18.547Z,14.87
2022-09-29T15:47:04.222Z,14.86
2022-09-29T15:49:51.873Z,14.84
2022-09-29T15:52:37.214Z,14.83
2022-09-29T15:55:23.939Z,14.78
2022-09-29T15:58:29.803Z,14.69
2022-09-29T16:01:19.245Z,14.54
2022-09-29T16:04:04.780Z,14.38
2022-09-29T16:06:51.526Z,14.26
2022-09-29T16:09:37.821Z,14.10
2022-09-29T16:12:23.615Z,13.94
2022-09-29T16:15:17.210Z,13.83
2022-09-29T16:18:06.360Z,13.74
2022-09-29T16:20:56.874Z,13.67
2022-09-29T16:23:49.953Z,13.59
2022-09-29T16:26:37.474Z,13.54
2022-09-29T16:29:24.866Z,13.48
2022-09-29T16:32:29.086Z,13.44
2022-09-29T16:35:33.168Z,13.36
2022-09-29T16:38:37.032Z,13.30
2022-09-29T16:41:39.333Z,13.24
2022-09-29T16:44:26.917Z,13.19
2022-09-29T16:47:29.607Z,13.14
2022-09-29T16:50:16.391Z,13.08
2022-09-29T16:53:01.719Z,13.01
2022-09-29T16:55:56.772Z,12.94
2022-09-29T16:58:42.137Z,12.88
2022-09-29T17:01:27.746Z,12.87
2022-09-29T17:04:13.181Z,12.87
2022-09-29T17:06:58.471Z,12.80
2022-09-29T17:09:46.742Z,12.73
2022-09-29T17:12:31.927Z,12.68
2022-09-29T17:15:17.919Z,12.64
2022-09-29T17:18:04.139Z,12.60
2022-09-29T17:20:52.058Z,12.58
2022-09-29T17:23:37.531Z,12.54
2022-09-29T17:26:45.572Z,12.46
2022-09-29T17:29:31.068Z,12.42
2022-09-29T17:32:17.264Z,12.41
2022-09-29T17:35:03.080Z,12.38
2022-09-29T17:37:48.424Z,12.34
2022-09-29T17:40:43.022Z,12.29
2022-09-29T17:43:28.714Z,12.22
2022-09-29T17:46:15.307Z,12.17
2022-09-29T17:49:01.280Z,12.12
2022-09-29T17:51:46.778Z,12.11
2022-09-29T17:54:33.260Z,12.10
2022-09-29T17:57:20.713Z,12.05
2022-09-29T18:00:16.977Z,12.03
2022-09-29T18:03:02.468Z,11.98
2022-09-29T18:05:49.359Z,11.98
2022-09-29T18:08:34.877Z,11.96
2022-09-29T18:11:24.410Z,11.95
2022-09-29T18:14:10.102Z,11.92
2022-09-29T18:16:55.526Z,11.92
2022-09-29T18:19:40.802Z,11.88
2022-09-29T18:22:26.188Z,11.86
2022-09-29T18:25:12.169Z,11.84
2022-09-29T18:27:57.816Z,11.82
2022-09-29T18:30:44.061Z,11.81
2022-09-29T18:33:29.529Z,11.77
2022-09-29T18:36:14.681Z,11.75
2022-09-29T18:39:00.061Z,11.72
2022-09-29T18:41:47.165Z,11.69
2022-09-29T18:44:34.085Z,11.67
2022-09-29T18:47:19.375Z,11.65
2022-09-29T18:50:07.393Z,11.64
2022-09-29T18:52:52.564Z,11.61
2022-09-29T18:55:40.850Z,11.60
2022-09-29T18:58:26.533Z,11.57
2022-09-29T19:01:24.667Z,11.55
2022-09-29T19:04:09.956Z,11.53
2022-09-29T19:06:55.289Z,11.50
2022-09-29T19:09:40.803Z,11.48
2022-09-29T19:12:29.858Z,11.48
2022-09-29T19:15:16.409Z,11.45
2022-09-29T19:18:02.411Z,11.43
2022-09-29T19:20:48.378Z,11.40
2022-09-29T19:23:34.030Z,11.37
2022-09-29T19:26:22.472Z,11.32
2022-09-29T19:29:08.450Z,11.29
2022-09-29T19:31:53.575Z,11.22
2022-09-29T19:34:39.216Z,11.20
2022-09-29T19:37:24.619Z,11.17
2022-09-29T19:40:11.068Z,11.17
2022-09-29T19:42:58.731Z,11.14
2022-09-29T19:45:44.817Z,11.12
2022-09-29T19:48:35.395Z,11.08
2022-09-29T19:51:39.745Z,11.07
2022-09-29T19:54:28.115Z,11.06
2022-09-29T19:57:16.079Z,11.03
2022-09-29T20:00:02.065Z,11.01
2022-09-29T20:02:58.627Z,10.96
2022-09-29T20:05:43.895Z,10.91
2022-09-29T20:08:29.413Z,10.87
2022-09-29T20:11:14.595Z,10.85
2022-09-29T20:14:03.551Z,10.82
2022-09-29T20:16:49.664Z,10.80
2022-09-29T20:19:35.035Z,10.79
2022-09-29T20:22:20.684Z,10.73
2022-09-29T20:25:07.394Z,10.73
2022-09-29T20:27:52.606Z,10.72
2022-09-29T20:30:38.033Z,10.70
2022-09-29T20:33:24.253Z,10.68
2022-09-29T20:36:09.399Z,10.69
2022-09-29T20:38:57.668Z,10.68
2022-09-29T20:41:43.803Z,10.70
2022-09-29T20:44:29.730Z,10.71
2022-09-29T20:47:15.432Z,10.69
2022-09-29T20:50:00.531Z,10.66
2022-09-29T20:52:49.302Z,10.63
2022-09-29T20:55:35.632Z,10.64
2022-09-29T20:58:20.800Z,10.64
2022-09-29T21:01:10.063Z,10.62
2022-09-29T21:03:56.818Z,10.62
2022-09-29T21:06:44.089Z,10.59
2022-09-29T21:09:29.334Z,10.56
2022-09-29T21:12:14.595Z,10.56
2022-09-29T21:15:00.623Z,10.53
2022-09-29T21:17:45.896Z,10.49
2022-09-29T21:20:31.623Z,10.47
2022-09-29T21:23:16.803Z,10.44
2022-09-29T21:26:04.507Z,10.45
2022-09-29T21:28:57.144Z,10.42
2022-09-29T21:31:42.364Z,10.33
2022-09-29T21:34:27.833Z,10.25
2022-09-29T21:37:13.208Z,10.19
2022-09-29T21:39:58.635Z,10.13
2022-09-29T21:42:44.115Z,10.07
2022-09-29T21:45:30.552Z,10.06
2022-09-29T21:48:15.880Z,10.05
2022-09-29T21:51:05.397Z,10.03
2022-09-29T21:53:51.893Z,10.01
2022-09-29T21:56:41.234Z,10.02
2022-09-29T21:59:26.427Z,9.99
2022-09-29T22:02:11.768Z,9.93
2022-09-29T22:04:57.095Z,9.89
2022-09-29T22:07:42.513Z,9.82
2022-09-29T22:10:27.915Z,9.77
2022-09-29T22:13:13.272Z,9.75
2022-09-29T22:16:04.306Z,9.74
2022-09-29T22:19:05.909Z,9.78
2022-09-29T22:21:55.648Z,9.81
2022-09-29T22:24:41.173Z,9.83
2022-09-29T22:27:27.230Z,9.81
2022-09-29T22:30:12.237Z,9.79
2022-09-29T22:32:57.563Z,9.79
2022-09-29T22:35:42.700Z,9.81
2022-09-29T22:38:28.212Z,9.78
2022-09-29T22:41:15.500Z,9.76
2022-09-29T22:44:00.911Z,9.75
2022-09-29T22:46:46.211Z,9.74
2022-09-29T22:49:31.683Z,9.71
2022-09-29T22:52:16.800Z,9.68
2022-09-29T22:55:02.517Z,9.67
2022-09-29T22:57:47.470Z,9.65
2022-09-29T23:00:32.802Z,9.65
2022-09-29T23:03:18.388Z,9.63
2022-09-29T23:06:05.931Z,9.60
2022-09-29T23:08:51.105Z,9.59
2022-09-29T23:11:36.699Z,9.59
2022-09-29T23:14:22.833Z,9.59
2022-09-29T23:17:08.156Z,9.53
2022-09-29T23:19:53.692Z,9.45
2022-09-29T23:22:40.955Z,9.34
2022-09-29T23:25:30.132Z,9.32
2022-09-29T23:28:15.434Z,9.33
2022-09-29T23:31:07.625Z,9.33
2022-09-29T23:33:54.786Z,9.33
2022-09-29T23:36:39.755Z,9.32
2022-09-29T23:39:25.063Z,9.31
2022-09-29T23:42:10.417Z,9.30
2022-09-29T23:44:55.597Z,9.30
2022-09-29T23:47:41.273Z,9.30
2022-09-29T23:50:26.374Z,9.30
2022-09-29T23:53:12.236Z,9.31
2022-09-29T23:55:57.418Z,9.33
2022-09-29T23:58:43.451Z,9.33
